sensor_id;sensor_type;location;lat;lon;timestamp;P1;durP1;ratioP1;P2;durP2;ratioP2
13343;SDS011;6741;48.964;9.406;2022-11-20T00:01:31;16.73;;;9.67;;
13343;SDS011;6741;48.964;9.406;2022-11-20T00:03:59;13.80;;;9.50;;
13343;SDS011;6741;48.964;9.406;2022-11-20T00:06:26;14.30;;;9.67;;
13343;SDS011;6741;48.964;9.406;2022-11-20T00:08:55;17.73;;;9.67;;
13343;SDS011;6741;48.964;9.406;2022-11-20T00:11:24;16.77;;;10.33;;
13343;SDS011;6741;48.964;9.406;2022-11-20T00:13:53;15.43;;;9.90;;
13343;SDS011;6741;48.964;9.406;2022-11-20T00:16:24;17.17;;;11.10;;
13343;SDS011;6741;48.964;9.406;2022-11-20T00:18:52;15.23;;;10.27;;
13343;SDS011;6741;48.964;9.406;2022-11-20T00:21:20;16.00;;;10.13;;
13343;SDS011;6741;48.964;9.406;2022-11-20T00:23:48;15.83;;;10.43;;
13343;SDS011;6741;48.964;9.406;2022-11-20T00:26:18;19.67;;;10.20;;
13343;SDS011;6741;48.964;9.406;2022-11-20T00:28:49;13.33;;;9.73;;
13343;SDS011;6741;48.964;9.406;2022-11-20T00:31:17;16.70;;;11.27;;
13343;SDS011;6741;48.964;9.406;2022-11-20T00:33:45;15.47;;;9.77;;
13343;SDS011;6741;48.964;9.406;2022-11-20T00:36:13;16.17;;;10.40;;
13343;SDS011;6741;48.964;9.406;2022-11-20T00:38:41;17.83;;;10.33;;
13343;SDS011;6741;48.964;9.406;2022-11-20T00:41:10;19.53;;;10.87;;
13343;SDS011;6741;48.964;9.406;2022-11-20T00:43:39;19.33;;;11.23;;
13343;SDS011;6741;48.964;9.406;2022-11-20T00:46:07;18.33;;;10.87;;
13343;SDS011;6741;48.964;9.406;2022-11-20T00:48:36;21.67;;;12.27;;
13343;SDS011;6741;48.964;9.406;2022-11-20T00:51:03;19.67;;;12.20;;
13343;SDS011;6741;48.964;9.406;2022-11-20T00:53:30;20.93;;;12.63;;
13343;SDS011;6741;48.964;9.406;2022-11-20T00:55:58;21.83;;;12.87;;
13343;SDS011;6741;48.964;9.406;2022-11-20T00:58:28;21.60;;;12.83;;
13343;SDS011;6741;48.964;9.406;2022-11-20T01:01:00;21.83;;;12.60;;
13343;SDS011;6741;48.964;9.406;2022-11-20T01:03:30;20.57;;;12.73;;
13343;SDS011;6741;48.964;9.406;2022-11-20T01:05:59;23.37;;;12.83;;
13343;SDS011;6741;48.964;9.406;2022-11-20T01:08:28;23.23;;;13.37;;
13343;SDS011;6741;48.964;9.406;2022-11-20T01:11:00;22.33;;;12.90;;
13343;SDS011;6741;48.964;9.406;2022-11-20T01:13:28;23.93;;;13.63;;
13343;SDS011;6741;48.964;9.406;2022-11-20T01:16:07;24.37;;;13.07;;
13343;SDS011;6741;48.964;9.406;2022-11-20T01:18:35;25.90;;;14.40;;
13343;SDS011;6741;48.964;9.406;2022-11-20T01:21:04;26.00;;;14.77;;
13343;SDS011;6741;48.964;9.406;2022-11-20T01:23:32;27.60;;;14.37;;
13343;SDS011;6741;48.964;9.406;2022-11-20T01:26:00;22.80;;;13.33;;
13343;SDS011;6741;48.964;9.406;2022-11-20T01:28:28;21.60;;;13.87;;
13343;SDS011;6741;48.964;9.406;2022-11-20T01:30:56;26.60;;;14.37;;
13343;SDS011;6741;48.964;9.406;2022-11-20T01:33:25;25.97;;;14.93;;
13343;SDS011;6741;48.964;9.406;2022-11-20T01:35:52;24.27;;;14.60;;
13343;SDS011;6741;48.964;9.406;2022-11-20T01:38:19;25.73;;;14.47;;
13343;SDS011;6741;48.964;9.406;2022-11-20T01:40:53;24.13;;;14.13;;
13343;SDS011;6741;48.964;9.406;2022-11-20T01:43:21;21.97;;;13.60;;
13343;SDS011;6741;48.964;9.406;2022-11-20T01:46:05;21.50;;;13.40;;
13343;SDS011;6741;48.964;9.406;2022-11-20T01:48:44;24.47;;;14.97;;
13343;SDS011;6741;48.964;9.406;2022-11-20T01:51:18;22.67;;;14.57;;
13343;SDS011;6741;48.964;9.406;2022-11-20T01:53:52;25.03;;;15.30;;
13343;SDS011;6741;48.964;9.406;2022-11-20T01:56:21;20.33;;;13.83;;
13343;SDS011;6741;48.964;9.406;2022-11-20T01:58:50;20.03;;;12.70;;
13343;SDS011;6741;48.964;9.406;2022-11-20T02:01:20;21.23;;;13.63;;
13343;SDS011;6741;48.964;9.406;2022-11-20T02:03:48;47.37;;;16.27;;
13343;SDS011;6741;48.964;9.406;2022-11-20T02:06:16;19.90;;;13.63;;
13343;SDS011;6741;48.964;9.406;2022-11-20T02:08:49;18.77;;;12.10;;
13343;SDS011;6741;48.964;9.406;2022-11-20T02:11:17;19.97;;;12.77;;
13343;SDS011;6741;48.964;9.406;2022-11-20T02:13:44;22.37;;;14.10;;
13343;SDS011;6741;48.964;9.406;2022-11-20T02:16:12;20.23;;;13.83;;
13343;SDS011;6741;48.964;9.406;2022-11-20T02:18:42;21.30;;;13.03;;
13343;SDS011;6741;48.964;9.406;2022-11-20T02:21:14;20.27;;;14.13;;
13343;SDS011;6741;48.964;9.406;2022-11-20T02:24:02;21.03;;;13.87;;
13343;SDS011;6741;48.964;9.406;2022-11-20T02:26:31;24.80;;;13.53;;
13343;SDS011;6741;48.964;9.406;2022-11-20T02:29:01;20.57;;;13.30;;
13343;SDS011;6741;48.964;9.406;2022-11-20T02:31:33;22.40;;;13.60;;
13343;SDS011;6741;48.964;9.406;2022-11-20T02:34:06;21.87;;;12.67;;
13343;SDS011;6741;48.964;9.406;2022-11-20T02:36:33;20.53;;;13.27;;
13343;SDS011;6741;48.964;9.406;2022-11-20T02:39:04;23.60;;;13.10;;
13343;SDS011;6741;48.964;9.406;2022-11-20T02:41:35;21.47;;;13.20;;
13343;SDS011;6741;48.964;9.406;2022-11-20T02:44:03;16.73;;;11.87;;
13343;SDS011;6741;48.964;9.406;2022-11-20T02:46:31;17.13;;;12.23;;
13343;SDS011;6741;48.964;9.406;2022-11-20T02:48:58;17.13;;;11.63;;
13343;SDS011;6741;48.964;9.406;2022-11-20T02:51:26;16.97;;;12.23;;
13343;SDS011;6741;48.964;9.406;2022-11-20T02:53:53;17.40;;;12.20;;
13343;SDS011;6741;48.964;9.406;2022-11-20T02:56:22;17.50;;;11.73;;
13343;SDS011;6741;48.964;9.406;2022-11-20T02:58:49;19.40;;;12.87;;
13343;SDS011;6741;48.964;9.406;2022-11-20T03:01:16;16.57;;;11.77;;
13343;SDS011;6741;48.964;9.406;2022-11-20T03:03:43;16.53;;;12.57;;
13343;SDS011;6741;48.964;9.406;2022-11-20T03:06:09;17.07;;;11.67;;
13343;SDS011;6741;48.964;9.406;2022-11-20T03:08:36;16.43;;;11.93;;
13343;SDS011;6741;48.964;9.406;2022-11-20T03:11:04;15.53;;;12.30;;
13343;SDS011;6741;48.964;9.406;2022-11-20T03:13:33;17.30;;;12.53;;
13343;SDS011;6741;48.964;9.406;2022-11-20T03:16:05;17.63;;;12.13;;
13343;SDS011;6741;48.964;9.406;2022-11-20T03:18:33;14.77;;;11.80;;
13343;SDS011;6741;48.964;9.406;2022-11-20T03:21:00;13.30;;;10.03;;
13343;SDS011;6741;48.964;9.406;2022-11-20T03:23:28;15.73;;;12.13;;
13343;SDS011;6741;48.964;9.406;2022-11-20T03:26:06;18.43;;;12.17;;
13343;SDS011;6741;48.964;9.406;2022-11-20T03:28:40;16.57;;;11.70;;
13343;SDS011;6741;48.964;9.406;2022-11-20T03:31:08;15.63;;;10.80;;
13343;SDS011;6741;48.964;9.406;2022-11-20T03:33:36;17.07;;;11.03;;
13343;SDS011;6741;48.964;9.406;2022-11-20T03:36:04;17.57;;;11.93;;
13343;SDS011;6741;48.964;9.406;2022-11-20T03:38:32;14.53;;;11.10;;
13343;SDS011;6741;48.964;9.406;2022-11-20T03:41:00;17.60;;;11.03;;
13343;SDS011;6741;48.964;9.406;2022-11-20T03:43:28;14.00;;;10.73;;
13343;SDS011;6741;48.964;9.406;2022-11-20T03:45:56;15.90;;;10.87;;
13343;SDS011;6741;48.964;9.406;2022-11-20T03:48:24;13.30;;;10.27;;
13343;SDS011;6741;48.964;9.406;2022-11-20T03:50:51;14.10;;;10.43;;
13343;SDS011;6741;48.964;9.406;2022-11-20T03:53:18;13.93;;;10.10;;
13343;SDS011;6741;48.964;9.406;2022-11-20T03:55:50;12.67;;;9.93;;
13343;SDS011;6741;48.964;9.406;2022-11-20T03:58:17;13.47;;;9.80;;
13343;SDS011;6741;48.964;9.406;2022-11-20T04:00:44;12.20;;;9.67;;
13343;SDS011;6741;48.964;9.406;2022-11-20T04:03:12;15.53;;;10.67;;
13343;SDS011;6741;48.964;9.406;2022-11-20T04:05:39;13.60;;;9.50;;
13343;SDS011;6741;48.964;9.406;2022-11-20T04:08:06;10.83;;;8.77;;
13343;SDS011;6741;48.964;9.406;2022-11-20T04:10:33;9.83;;;7.60;;
13343;SDS011;6741;48.964;9.406;2022-11-20T04:13:00;8.73;;;7.70;;
13343;SDS011;6741;48.964;9.406;2022-11-20T04:15:27;9.10;;;7.53;;
13343;SDS011;6741;48.964;9.406;2022-11-20T04:17:54;11.20;;;7.40;;
13343;SDS011;6741;48.964;9.406;2022-11-20T04:20:22;8.83;;;7.27;;
13343;SDS011;6741;48.964;9.406;2022-11-20T04:22:52;7.40;;;6.57;;
13343;SDS011;6741;48.964;9.406;2022-11-20T04:25:20;8.47;;;6.40;;
13343;SDS011;6741;48.964;9.406;2022-11-20T04:27:47;7.20;;;6.43;;
13343;SDS011;6741;48.964;9.406;2022-11-20T04:30:14;9.07;;;5.67;;
13343;SDS011;6741;48.964;9.406;2022-11-20T04:32:41;7.80;;;5.27;;
13343;SDS011;6741;48.964;9.406;2022-11-20T04:35:08;8.53;;;5.97;;
13343;SDS011;6741;48.964;9.406;2022-11-20T04:37:36;6.47;;;4.93;;
13343;SDS011;6741;48.964;9.406;2022-11-20T04:40:04;5.93;;;4.80;;
13343;SDS011;6741;48.964;9.406;2022-11-20T04:42:31;4.53;;;4.13;;
13343;SDS011;6741;48.964;9.406;2022-11-20T04:44:58;5.77;;;4.90;;
13343;SDS011;6741;48.964;9.406;2022-11-20T04:47:25;4.50;;;3.90;;
13343;SDS011;6741;48.964;9.406;2022-11-20T04:49:52;6.77;;;4.80;;
13343;SDS011;6741;48.964;9.406;2022-11-20T04:52:19;4.67;;;4.27;;
13343;SDS011;6741;48.964;9.406;2022-11-20T04:54:47;5.30;;;4.20;;
13343;SDS011;6741;48.964;9.406;2022-11-20T04:57:17;4.77;;;4.33;;
13343;SDS011;6741;48.964;9.406;2022-11-20T04:59:44;4.30;;;3.90;;
13343;SDS011;6741;48.964;9.406;2022-11-20T05:02:11;5.13;;;4.37;;
13343;SDS011;6741;48.964;9.406;2022-11-20T05:04:38;6.70;;;4.53;;
13343;SDS011;6741;48.964;9.406;2022-11-20T05:07:05;5.53;;;4.47;;
13343;SDS011;6741;48.964;9.406;2022-11-20T05:09:32;4.60;;;4.07;;
13343;SDS011;6741;48.964;9.406;2022-11-20T05:12:00;5.30;;;4.40;;
13343;SDS011;6741;48.964;9.406;2022-11-20T05:14:27;5.03;;;4.30;;
13343;SDS011;6741;48.964;9.406;2022-11-20T05:16:54;5.03;;;4.27;;
13343;SDS011;6741;48.964;9.406;2022-11-20T05:19:21;5.67;;;4.60;;
13343;SDS011;6741;48.964;9.406;2022-11-20T05:21:48;4.30;;;3.90;;
13343;SDS011;6741;48.964;9.406;2022-11-20T05:24:15;5.67;;;4.43;;
13343;SDS011;6741;48.964;9.406;2022-11-20T05:26:42;5.20;;;4.00;;
13343;SDS011;6741;48.964;9.406;2022-11-20T05:29:11;5.70;;;4.63;;
13343;SDS011;6741;48.964;9.406;2022-11-20T05:31:38;4.57;;;4.17;;
13343;SDS011;6741;48.964;9.406;2022-11-20T05:34:06;4.67;;;4.27;;
13343;SDS011;6741;48.964;9.406;2022-11-20T05:36:33;4.47;;;4.07;;
13343;SDS011;6741;48.964;9.406;2022-11-20T05:39:00;5.70;;;4.70;;
13343;SDS011;6741;48.964;9.406;2022-11-20T05:41:27;4.77;;;4.37;;
13343;SDS011;6741;48.964;9.406;2022-11-20T05:43:55;5.20;;;4.70;;
13343;SDS011;6741;48.964;9.406;2022-11-20T05:46:24;4.50;;;4.10;;
13343;SDS011;6741;48.964;9.406;2022-11-20T05:48:51;8.53;;;4.50;;
13343;SDS011;6741;48.964;9.406;2022-11-20T05:51:18;4.53;;;3.87;;
13343;SDS011;6741;48.964;9.406;2022-11-20T05:53:45;5.23;;;4.70;;
13343;SDS011;6741;48.964;9.406;2022-11-20T05:56:14;5.00;;;3.90;;
13343;SDS011;6741;48.964;9.406;2022-11-20T05:58:42;4.77;;;4.30;;
13343;SDS011;6741;48.964;9.406;2022-11-20T06:01:10;5.23;;;4.00;;
13343;SDS011;6741;48.964;9.406;2022-11-20T06:03:40;5.30;;;4.13;;
13343;SDS011;6741;48.964;9.406;2022-11-20T06:06:10;6.57;;;4.27;;
13343;SDS011;6741;48.964;9.406;2022-11-20T06:08:38;5.77;;;4.37;;
13343;SDS011;6741;48.964;9.406;2022-11-20T06:11:05;4.63;;;4.23;;
13343;SDS011;6741;48.964;9.406;2022-11-20T06:13:33;4.50;;;4.10;;
13343;SDS011;6741;48.964;9.406;2022-11-20T06:16:00;5.83;;;4.17;;
13343;SDS011;6741;48.964;9.406;2022-11-20T06:18:27;5.20;;;4.27;;
13343;SDS011;6741;48.964;9.406;2022-11-20T06:21:03;6.17;;;5.03;;
13343;SDS011;6741;48.964;9.406;2022-11-20T06:23:32;5.23;;;4.73;;
13343;SDS011;6741;48.964;9.406;2022-11-20T06:26:01;5.87;;;5.20;;
13343;SDS011;6741;48.964;9.406;2022-11-20T06:28:29;5.20;;;4.70;;
13343;SDS011;6741;48.964;9.406;2022-11-20T06:30:56;5.10;;;4.60;;
13343;SDS011;6741;48.964;9.406;2022-11-20T06:33:23;4.73;;;4.23;;
13343;SDS011;6741;48.964;9.406;2022-11-20T06:35:50;5.17;;;4.67;;
13343;SDS011;6741;48.964;9.406;2022-11-20T06:38:18;5.30;;;4.77;;
13343;SDS011;6741;48.964;9.406;2022-11-20T06:40:45;4.97;;;4.30;;
13343;SDS011;6741;48.964;9.406;2022-11-20T06:43:12;5.47;;;4.97;;
13343;SDS011;6741;48.964;9.406;2022-11-20T06:45:39;7.07;;;4.63;;
13343;SDS011;6741;48.964;9.406;2022-11-20T06:48:06;6.63;;;4.33;;
13343;SDS011;6741;48.964;9.406;2022-11-20T06:50:33;5.10;;;4.07;;
13343;SDS011;6741;48.964;9.406;2022-11-20T06:53:00;4.00;;;3.70;;
13343;SDS011;6741;48.964;9.406;2022-11-20T06:55:30;3.90;;;3.60;;
13343;SDS011;6741;48.964;9.406;2022-11-20T06:57:57;4.57;;;3.87;;
13343;SDS011;6741;48.964;9.406;2022-11-20T07:00:24;4.17;;;3.47;;
13343;SDS011;6741;48.964;9.406;2022-11-20T07:02:51;5.07;;;3.73;;
13343;SDS011;6741;48.964;9.406;2022-11-20T07:05:18;4.83;;;3.57;;
13343;SDS011;6741;48.964;9.406;2022-11-20T07:07:45;4.60;;;3.67;;
13343;SDS011;6741;48.964;9.406;2022-11-20T07:10:12;4.33;;;3.93;;
13343;SDS011;6741;48.964;9.406;2022-11-20T07:12:40;4.20;;;3.80;;
13343;SDS011;6741;48.964;9.406;2022-11-20T07:15:07;4.20;;;3.80;;
13343;SDS011;6741;48.964;9.406;2022-11-20T07:17:34;4.73;;;3.60;;
13343;SDS011;6741;48.964;9.406;2022-11-20T07:20:01;5.33;;;3.63;;
13343;SDS011;6741;48.964;9.406;2022-11-20T07:22:29;4.07;;;3.70;;
13343;SDS011;6741;48.964;9.406;2022-11-20T07:24:56;15.60;;;7.70;;
13343;SDS011;6741;48.964;9.406;2022-11-20T07:27:23;4.10;;;3.70;;
13343;SDS011;6741;48.964;9.406;2022-11-20T07:29:51;5.53;;;3.50;;
13343;SDS011;6741;48.964;9.406;2022-11-20T07:32:18;3.97;;;3.23;;
13343;SDS011;6741;48.964;9.406;2022-11-20T07:34:45;4.47;;;3.80;;
13343;SDS011;6741;48.964;9.406;2022-11-20T07:37:12;7.87;;;3.63;;
13343;SDS011;6741;48.964;9.406;2022-11-20T07:39:39;6.40;;;4.80;;
13343;SDS011;6741;48.964;9.406;2022-11-20T07:42:06;5.13;;;4.60;;
13343;SDS011;6741;48.964;9.406;2022-11-20T07:44:34;4.70;;;4.30;;
13343;SDS011;6741;48.964;9.406;2022-11-20T07:47:03;4.50;;;4.10;;
13343;SDS011;6741;48.964;9.406;2022-11-20T07:49:30;4.80;;;3.60;;
13343;SDS011;6741;48.964;9.406;2022-11-20T07:51:57;4.60;;;4.20;;
13343;SDS011;6741;48.964;9.406;2022-11-20T07:54:24;4.73;;;4.23;;
13343;SDS011;6741;48.964;9.406;2022-11-20T07:56:51;5.67;;;3.43;;
13343;SDS011;6741;48.964;9.406;2022-11-20T07:59:17;5.13;;;3.87;;
13343;SDS011;6741;48.964;9.406;2022-11-20T08:01:44;4.87;;;3.50;;
13343;SDS011;6741;48.964;9.406;2022-11-20T08:04:13;4.10;;;3.80;;
13343;SDS011;6741;48.964;9.406;2022-11-20T08:06:41;4.23;;;3.83;;
13343;SDS011;6741;48.964;9.406;2022-11-20T08:09:08;4.53;;;3.70;;
13343;SDS011;6741;48.964;9.406;2022-11-20T08:11:35;3.97;;;3.60;;
13343;SDS011;6741;48.964;9.406;2022-11-20T08:14:19;4.33;;;3.93;;
13343;SDS011;6741;48.964;9.406;2022-11-20T08:16:46;4.20;;;3.70;;
13343;SDS011;6741;48.964;9.406;2022-11-20T08:19:17;4.63;;;4.03;;
13343;SDS011;6741;48.964;9.406;2022-11-20T08:21:44;4.07;;;3.67;;
13343;SDS011;6741;48.964;9.406;2022-11-20T08:24:11;4.50;;;4.10;;
13343;SDS011;6741;48.964;9.406;2022-11-20T08:26:39;3.63;;;3.30;;
13343;SDS011;6741;48.964;9.406;2022-11-20T08:29:06;4.40;;;4.00;;
13343;SDS011;6741;48.964;9.406;2022-11-20T08:31:33;3.93;;;3.63;;
13343;SDS011;6741;48.964;9.406;2022-11-20T08:34:00;5.27;;;4.00;;
13343;SDS011;6741;48.964;9.406;2022-11-20T08:36:28;4.63;;;4.20;;
13343;SDS011;6741;48.964;9.406;2022-11-20T08:39:00;3.83;;;3.50;;
13343;SDS011;6741;48.964;9.406;2022-11-20T08:41:27;4.00;;;3.70;;
13343;SDS011;6741;48.964;9.406;2022-11-20T08:43:58;4.23;;;3.83;;
13343;SDS011;6741;48.964;9.406;2022-11-20T08:46:27;4.20;;;3.90;;
13343;SDS011;6741;48.964;9.406;2022-11-20T08:48:59;6.47;;;4.30;;
13343;SDS011;6741;48.964;9.406;2022-11-20T08:51:26;4.50;;;4.10;;
13343;SDS011;6741;48.964;9.406;2022-11-20T08:53:54;4.90;;;4.30;;
13343;SDS011;6741;48.964;9.406;2022-11-20T08:56:21;4.63;;;4.23;;
13343;SDS011;6741;48.964;9.406;2022-11-20T08:58:49;6.60;;;4.40;;
13343;SDS011;6741;48.964;9.406;2022-11-20T09:01:16;4.97;;;4.20;;
13343;SDS011;6741;48.964;9.406;2022-11-20T09:03:43;4.60;;;4.10;;
13343;SDS011;6741;48.964;9.406;2022-11-20T09:06:10;5.37;;;4.40;;
13343;SDS011;6741;48.964;9.406;2022-11-20T09:08:38;5.13;;;4.40;;
13343;SDS011;6741;48.964;9.406;2022-11-20T09:11:06;5.20;;;4.00;;
13343;SDS011;6741;48.964;9.406;2022-11-20T09:13:34;4.50;;;4.10;;
13343;SDS011;6741;48.964;9.406;2022-11-20T09:16:02;5.33;;;4.83;;
13343;SDS011;6741;48.964;9.406;2022-11-20T09:18:31;6.57;;;4.60;;
13343;SDS011;6741;48.964;9.406;2022-11-20T09:20:59;8.30;;;5.30;;
13343;SDS011;6741;48.964;9.406;2022-11-20T09:23:27;7.00;;;5.37;;
13343;SDS011;6741;48.964;9.406;2022-11-20T09:26:00;6.43;;;5.47;;
13343;SDS011;6741;48.964;9.406;2022-11-20T09:28:30;5.77;;;4.67;;
13343;SDS011;6741;48.964;9.406;2022-11-20T09:30:59;6.43;;;4.40;;
13343;SDS011;6741;48.964;9.406;2022-11-20T09:33:26;6.37;;;4.80;;
13343;SDS011;6741;48.964;9.406;2022-11-20T09:35:53;5.53;;;5.00;;
13343;SDS011;6741;48.964;9.406;2022-11-20T09:38:20;5.50;;;5.00;;
13343;SDS011;6741;48.964;9.406;2022-11-20T09:40:48;6.73;;;5.90;;
13343;SDS011;6741;48.964;9.406;2022-11-20T09:43:23;8.37;;;7.57;;
13343;SDS011;6741;48.964;9.406;2022-11-20T09:46:04;10.83;;;8.37;;
13343;SDS011;6741;48.964;9.406;2022-11-20T09:48:42;8.73;;;6.97;;
13343;SDS011;6741;48.964;9.406;2022-11-20T09:51:21;6.27;;;5.33;;
13343;SDS011;6741;48.964;9.406;2022-11-20T09:53:58;5.77;;;5.17;;
13343;SDS011;6741;48.964;9.406;2022-11-20T09:56:33;6.00;;;5.40;;
13343;SDS011;6741;48.964;9.406;2022-11-20T09:59:05;5.63;;;5.03;;
13343;SDS011;6741;48.964;9.406;2022-11-20T10:01:38;5.03;;;4.53;;
13343;SDS011;6741;48.964;9.406;2022-11-20T10:04:10;7.40;;;5.60;;
13343;SDS011;6741;48.964;9.406;2022-11-20T10:06:42;17.20;;;9.60;;
13343;SDS011;6741;48.964;9.406;2022-11-20T10:09:18;7.33;;;6.33;;
13343;SDS011;6741;48.964;9.406;2022-11-20T10:11:55;6.63;;;5.00;;
13343;SDS011;6741;48.964;9.406;2022-11-20T10:14:34;4.97;;;4.37;;
13343;SDS011;6741;48.964;9.406;2022-11-20T10:17:15;5.10;;;4.30;;
13343;SDS011;6741;48.964;9.406;2022-11-20T10:19:54;4.67;;;3.67;;
13343;SDS011;6741;48.964;9.406;2022-11-20T10:22:40;4.03;;;3.30;;
13343;SDS011;6741;48.964;9.406;2022-11-20T10:25:33;4.20;;;3.53;;
13343;SDS011;6741;48.964;9.406;2022-11-20T10:28:16;3.80;;;3.07;;
13343;SDS011;6741;48.964;9.406;2022-11-20T10:30:57;3.73;;;2.60;;
13343;SDS011;6741;48.964;9.406;2022-11-20T10:33:29;3.97;;;3.30;;
13343;SDS011;6741;48.964;9.406;2022-11-20T10:36:05;3.40;;;3.10;;
13343;SDS011;6741;48.964;9.406;2022-11-20T10:38:39;3.77;;;3.47;;
13343;SDS011;6741;48.964;9.406;2022-11-20T10:41:11;3.10;;;2.80;;
13343;SDS011;6741;48.964;9.406;2022-11-20T10:43:52;2.60;;;2.40;;
13343;SDS011;6741;48.964;9.406;2022-11-20T10:46:29;2.70;;;2.50;;
13343;SDS011;6741;48.964;9.406;2022-11-20T10:49:04;2.63;;;2.43;;
13343;SDS011;6741;48.964;9.406;2022-11-20T10:51:37;3.33;;;3.03;;
13343;SDS011;6741;48.964;9.406;2022-11-20T10:54:12;3.60;;;3.30;;
13343;SDS011;6741;48.964;9.406;2022-11-20T10:56:47;3.50;;;3.20;;
13343;SDS011;6741;48.964;9.406;2022-11-20T11:02:21;3.13;;;2.83;;
13343;SDS011;6741;48.964;9.406;2022-11-20T11:04:50;3.40;;;2.70;;
13343;SDS011;6741;48.964;9.406;2022-11-20T11:07:19;3.50;;;2.60;;
13343;SDS011;6741;48.964;9.406;2022-11-20T11:09:49;2.80;;;2.60;;
13343;SDS011;6741;48.964;9.406;2022-11-20T11:12:18;3.23;;;2.40;;
13343;SDS011;6741;48.964;9.406;2022-11-20T11:14:47;2.43;;;2.23;;
13343;SDS011;6741;48.964;9.406;2022-11-20T11:17:21;2.90;;;2.07;;
13343;SDS011;6741;48.964;9.406;2022-11-20T11:20:02;2.60;;;2.40;;
13343;SDS011;6741;48.964;9.406;2022-11-20T11:22:32;3.23;;;2.60;;
13343;SDS011;6741;48.964;9.406;2022-11-20T11:25:00;3.30;;;2.60;;
13343;SDS011;6741;48.964;9.406;2022-11-20T11:27:27;3.03;;;2.60;;
13343;SDS011;6741;48.964;9.406;2022-11-20T11:30:01;3.63;;;2.83;;
13343;SDS011;6741;48.964;9.406;2022-11-20T11:32:41;3.90;;;3.40;;
13343;SDS011;6741;48.964;9.406;2022-11-20T11:35:18;3.87;;;3.47;;
13343;SDS011;6741;48.964;9.406;2022-11-20T11:37:47;4.87;;;4.00;;
13343;SDS011;6741;48.964;9.406;2022-11-20T11:40:16;4.80;;;4.30;;
13343;SDS011;6741;48.964;9.406;2022-11-20T11:42:44;4.87;;;3.97;;
13343;SDS011;6741;48.964;9.406;2022-11-20T11:45:17;6.30;;;4.33;;
13343;SDS011;6741;48.964;9.406;2022-11-20T11:47:45;9.20;;;4.67;;
13343;SDS011;6741;48.964;9.406;2022-11-20T11:50:17;5.83;;;4.33;;
13343;SDS011;6741;48.964;9.406;2022-11-20T11:52:49;4.90;;;4.40;;
13343;SDS011;6741;48.964;9.406;2022-11-20T11:55:29;4.70;;;4.20;;
13343;SDS011;6741;48.964;9.406;2022-11-20T11:58:02;3.80;;;3.40;;
13343;SDS011;6741;48.964;9.406;2022-11-20T12:00:35;6.27;;;3.87;;
13343;SDS011;6741;48.964;9.406;2022-11-20T12:03:09;4.23;;;3.83;;
13343;SDS011;6741;48.964;9.406;2022-11-20T12:05:41;3.90;;;3.47;;
13343;SDS011;6741;48.964;9.406;2022-11-20T12:08:12;4.70;;;3.70;;
13343;SDS011;6741;48.964;9.406;2022-11-20T12:10:45;5.53;;;3.90;;
13343;SDS011;6741;48.964;9.406;2022-11-20T12:13:28;3.50;;;3.20;;
13343;SDS011;6741;48.964;9.406;2022-11-20T12:16:10;6.57;;;4.23;;
13343;SDS011;6741;48.964;9.406;2022-11-20T12:18:41;5.87;;;3.80;;
13343;SDS011;6741;48.964;9.406;2022-11-20T12:21:15;3.07;;;2.87;;
13343;SDS011;6741;48.964;9.406;2022-11-20T12:23:52;3.33;;;2.43;;
13343;SDS011;6741;48.964;9.406;2022-11-20T12:26:43;4.73;;;2.63;;
13343;SDS011;6741;48.964;9.406;2022-11-20T12:29:22;5.90;;;3.17;;
13343;SDS011;6741;48.964;9.406;2022-11-20T12:32:03;3.20;;;2.20;;
13343;SDS011;6741;48.964;9.406;2022-11-20T12:34:46;4.57;;;2.57;;
13343;SDS011;6741;48.964;9.406;2022-11-20T12:37:29;5.20;;;2.83;;
13343;SDS011;6741;48.964;9.406;2022-11-20T12:40:08;5.17;;;2.80;;
13343;SDS011;6741;48.964;9.406;2022-11-20T12:42:50;2.97;;;2.23;;
13343;SDS011;6741;48.964;9.406;2022-11-20T12:45:52;3.67;;;2.00;;
13343;SDS011;6741;48.964;9.406;2022-11-20T12:48:38;2.70;;;1.97;;
13343;SDS011;6741;48.964;9.406;2022-11-20T12:51:21;2.37;;;1.90;;
13343;SDS011;6741;48.964;9.406;2022-11-20T12:54:02;4.00;;;2.03;;
13343;SDS011;6741;48.964;9.406;2022-11-20T12:56:41;2.30;;;2.10;;
13343;SDS011;6741;48.964;9.406;2022-11-20T12:59:21;3.50;;;2.00;;
13343;SDS011;6741;48.964;9.406;2022-11-20T13:01:58;5.97;;;2.23;;
13343;SDS011;6741;48.964;9.406;2022-11-20T13:04:45;3.07;;;2.13;;
13343;SDS011;6741;48.964;9.406;2022-11-20T13:07:33;2.20;;;1.80;;
13343;SDS011;6741;48.964;9.406;2022-11-20T13:10:01;4.00;;;1.97;;
13343;SDS011;6741;48.964;9.406;2022-11-20T13:12:31;2.27;;;1.63;;
13343;SDS011;6741;48.964;9.406;2022-11-20T13:15:04;3.57;;;2.47;;
13343;SDS011;6741;48.964;9.406;2022-11-20T13:17:45;3.60;;;2.20;;
13343;SDS011;6741;48.964;9.406;2022-11-20T13:20:18;2.23;;;1.80;;
13343;SDS011;6741;48.964;9.406;2022-11-20T13:22:47;2.43;;;1.80;;
13343;SDS011;6741;48.964;9.406;2022-11-20T13:25:22;2.03;;;1.53;;
13343;SDS011;6741;48.964;9.406;2022-11-20T13:27:50;2.10;;;1.57;;
13343;SDS011;6741;48.964;9.406;2022-11-20T13:30:18;2.60;;;1.60;;
13343;SDS011;6741;48.964;9.406;2022-11-20T13:32:52;4.17;;;2.13;;
13343;SDS011;6741;48.964;9.406;2022-11-20T13:35:32;2.17;;;1.40;;
13343;SDS011;6741;48.964;9.406;2022-11-20T13:38:03;3.67;;;1.70;;
13343;SDS011;6741;48.964;9.406;2022-11-20T13:40:32;1.70;;;1.47;;
13343;SDS011;6741;48.964;9.406;2022-11-20T13:43:04;1.70;;;1.50;;
13343;SDS011;6741;48.964;9.406;2022-11-20T13:45:40;3.10;;;1.80;;
13343;SDS011;6741;48.964;9.406;2022-11-20T13:48:18;4.70;;;1.70;;
13343;SDS011;6741;48.964;9.406;2022-11-20T13:50:49;2.50;;;2.03;;
13343;SDS011;6741;48.964;9.406;2022-11-20T13:53:29;2.30;;;2.00;;
13343;SDS011;6741;48.964;9.406;2022-11-20T13:56:06;3.90;;;2.07;;
13343;SDS011;6741;48.964;9.406;2022-11-20T13:58:44;2.70;;;1.37;;
13343;SDS011;6741;48.964;9.406;2022-11-20T14:01:24;3.07;;;1.63;;
13343;SDS011;6741;48.964;9.406;2022-11-20T14:03:52;2.53;;;1.13;;
13343;SDS011;6741;48.964;9.406;2022-11-20T14:06:23;1.37;;;1.20;;
13343;SDS011;6741;48.964;9.406;2022-11-20T14:08:55;2.20;;;1.70;;
13343;SDS011;6741;48.964;9.406;2022-11-20T14:11:23;3.50;;;1.60;;
13343;SDS011;6741;48.964;9.406;2022-11-20T14:13:58;1.97;;;1.57;;
13343;SDS011;6741;48.964;9.406;2022-11-20T14:16:28;2.10;;;1.50;;
13343;SDS011;6741;48.964;9.406;2022-11-20T14:18:57;2.40;;;1.70;;
13343;SDS011;6741;48.964;9.406;2022-11-20T14:21:43;1.40;;;1.23;;
13343;SDS011;6741;48.964;9.406;2022-11-20T14:24:12;2.40;;;1.77;;
13343;SDS011;6741;48.964;9.406;2022-11-20T14:26:41;3.70;;;2.30;;
13343;SDS011;6741;48.964;9.406;2022-11-20T14:29:11;2.17;;;1.60;;
13343;SDS011;6741;48.964;9.406;2022-11-20T14:31:39;1.77;;;1.40;;
13343;SDS011;6741;48.964;9.406;2022-11-20T14:34:10;1.93;;;1.50;;
13343;SDS011;6741;48.964;9.406;2022-11-20T14:36:41;1.70;;;1.60;;
13343;SDS011;6741;48.964;9.406;2022-11-20T14:39:12;4.10;;;1.70;;
13343;SDS011;6741;48.964;9.406;2022-11-20T14:41:49;1.50;;;1.40;;
13343;SDS011;6741;48.964;9.406;2022-11-20T14:44:17;1.83;;;1.00;;
13343;SDS011;6741;48.964;9.406;2022-11-20T14:46:46;1.10;;;0.90;;
13343;SDS011;6741;48.964;9.406;2022-11-20T14:49:13;1.83;;;0.93;;
13343;SDS011;6741;48.964;9.406;2022-11-20T14:51:40;2.83;;;1.20;;
13343;SDS011;6741;48.964;9.406;2022-11-20T14:54:08;1.43;;;1.33;;
13343;SDS011;6741;48.964;9.406;2022-11-20T14:56:37;4.10;;;1.40;;
13343;SDS011;6741;48.964;9.406;2022-11-20T14:59:04;2.03;;;1.47;;
13343;SDS011;6741;48.964;9.406;2022-11-20T15:01:32;2.30;;;1.37;;
13343;SDS011;6741;48.964;9.406;2022-11-20T15:04:00;1.47;;;1.20;;
13343;SDS011;6741;48.964;9.406;2022-11-20T15:06:30;2.53;;;1.10;;
13343;SDS011;6741;48.964;9.406;2022-11-20T15:08:57;0.93;;;0.93;;
13343;SDS011;6741;48.964;9.406;2022-11-20T15:11:27;1.23;;;1.13;;
13343;SDS011;6741;48.964;9.406;2022-11-20T15:13:58;2.47;;;1.40;;
13343;SDS011;6741;48.964;9.406;2022-11-20T15:16:29;1.70;;;1.60;;
13343;SDS011;6741;48.964;9.406;2022-11-20T15:18:56;1.40;;;1.30;;